sensor_id;sensor_type;location;lat;lon;timestamp;pressure;altitude;pressure_sealevel;temperature;humidity
7182;BME280;3632;42.724;23.298;2022-10-16T00:02:19;95700.56;;;7.62;87.61
7182;BME280;3632;42.724;23.298;2022-10-16T00:04:58;95719.22;;;7.19;87.71
7182;BME280;3632;42.724;23.298;2022-10-16T00:07:34;95589.38;;;6.57;88.29
7182;BME280;3632;42.724;23.298;2022-10-16T00:10:13;96064.16;;;9.66;89.79
7182;BME280;3632;42.724;23.298;2022-10-16T00:12:52;95925.56;;;8.77;89.94
7182;BME280;3632;42.724;23.298;2022-10-16T00:15:27;96065.84;;;9.79;89.95
7182;BME280;3632;42.724;23.298;2022-10-16T00:17:54;96065.16;;;9.90;89.89
7182;BME280;3632;42.724;23.298;2022-10-16T00:20:21;95420.81;;;5.96;89.01
7182;BME280;3632;42.724;23.298;2022-10-16T00:22:48;95992.78;;;9.54;89.00
7182;BME280;3632;42.724;23.298;2022-10-16T00:25:16;96068.91;;;10.11;88.35
7182;BME280;3632;42.724;23.298;2022-10-16T00:27:43;95703.59;;;7.96;87.26
7182;BME280;3632;42.724;23.298;2022-10-16T00:30:12;96070.31;;;10.29;86.63
7182;BME280;3632;42.724;23.298;2022-10-16T00:32:38;95803.13;;;8.43;85.98
7182;BME280;3632;42.724;23.298;2022-10-16T00:35:06;95976.06;;;9.50;86.41
7182;BME280;3632;42.724;23.298;2022-10-16T00:37:33;95940.75;;;9.32;86.36
7182;BME280;3632;42.724;23.298;2022-10-16T00:40:00;96077.44;;;10.10;86.67
7182;BME280;3632;42.724;23.298;2022-10-16T00:42:29;96079.28;;;10.08;85.44
7182;BME280;3632;42.724;23.298;2022-10-16T00:44:57;96069.03;;;9.83;86.10
7182;BME280;3632;42.724;23.298;2022-10-16T00:47:29;96087.41;;;9.74;87.06
7182;BME280;3632;42.724;23.298;2022-10-16T00:50:00;95718.69;;;7.56;86.95
7182;BME280;3632;42.724;23.298;2022-10-16T00:52:28;96069.41;;;9.77;87.10
7182;BME280;3632;42.724;23.298;2022-10-16T00:54:56;96068.88;;;9.72;87.52
7182;BME280;3632;42.724;23.298;2022-10-16T00:57:25;95784.22;;;7.20;87.44
7182;BME280;3632;42.724;23.298;2022-10-16T00:59:53;95789.34;;;7.91;87.65
7182;BME280;3632;42.724;23.298;2022-10-16T01:02:20;95936.88;;;8.99;87.37
7182;BME280;3632;42.724;23.298;2022-10-16T01:04:49;96072.69;;;9.79;87.51
7182;BME280;3632;42.724;23.298;2022-10-16T01:07:28;96110.38;;;9.45;87.75
7182;BME280;3632;42.724;23.298;2022-10-16T01:10:07;95822.53;;;7.88;86.85
7182;BME280;3632;42.724;23.298;2022-10-16T01:12:41;95897.88;;;8.58;87.09
7182;BME280;3632;42.724;23.298;2022-10-16T01:15:18;95716.06;;;7.44;87.01
7182;BME280;3632;42.724;23.298;2022-10-16T01:17:56;96106.97;;;9.59;87.28
7182;BME280;3632;42.724;23.298;2022-10-16T01:20:29;96080.38;;;9.50;88.01
7182;BME280;3632;42.724;23.298;2022-10-16T01:23:04;96070.84;;;9.54;87.68
7182;BME280;3632;42.724;23.298;2022-10-16T01:25:52;95824.47;;;7.40;87.74
7182;BME280;3632;42.724;23.298;2022-10-16T01:28:27;95814.50;;;7.51;87.74
7182;BME280;3632;42.724;23.298;2022-10-16T01:30:58;96067.66;;;9.50;88.21
7182;BME280;3632;42.724;23.298;2022-10-16T01:33:28;95694.28;;;6.97;87.41
7182;BME280;3632;42.724;23.298;2022-10-16T01:36:00;95731.09;;;6.88;87.51
7182;BME280;3632;42.724;23.298;2022-10-16T01:38:32;96072.69;;;9.24;88.53
7182;BME280;3632;42.724;23.298;2022-10-16T01:41:04;96063.88;;;9.15;88.52
7182;BME280;3632;42.724;23.298;2022-10-16T01:43:37;95753.06;;;7.18;89.29
7182;BME280;3632;42.724;23.298;2022-10-16T01:46:05;96086.59;;;9.18;89.24
7182;BME280;3632;42.724;23.298;2022-10-16T01:48:35;96078.97;;;9.18;89.49
7182;BME280;3632;42.724;23.298;2022-10-16T01:51:05;96056.06;;;8.76;88.92
7182;BME280;3632;42.724;23.298;2022-10-16T01:53:35;95704.13;;;6.87;88.71
7182;BME280;3632;42.724;23.298;2022-10-16T01:56:07;95625.94;;;5.76;88.46
7182;BME280;3632;42.724;23.298;2022-10-16T01:58:43;96020.47;;;8.61;88.63
7182;BME280;3632;42.724;23.298;2022-10-16T02:01:16;95556.84;;;5.60;88.50
7182;BME280;3632;42.724;23.298;2022-10-16T02:03:48;95948.31;;;7.77;88.73
7182;BME280;3632;42.724;23.298;2022-10-16T02:06:19;95606.91;;;5.69;88.18
7182;BME280;3632;42.724;23.298;2022-10-16T02:08:49;95360.13;;;4.77;88.01
7182;BME280;3632;42.724;23.298;2022-10-16T02:11:17;96101.94;;;9.31;88.11
7182;BME280;3632;42.724;23.298;2022-10-16T02:13:50;95700.31;;;6.80;87.76
7182;BME280;3632;42.724;23.298;2022-10-16T02:16:20;95646.59;;;5.84;87.32
7182;BME280;3632;42.724;23.298;2022-10-16T02:18:47;95813.75;;;7.35;87.34
7182;BME280;3632;42.724;23.298;2022-10-16T02:21:19;95755.66;;;6.72;88.04
7182;BME280;3632;42.724;23.298;2022-10-16T02:23:54;95857.00;;;7.48;88.75
7182;BME280;3632;42.724;23.298;2022-10-16T02:26:29;95980.16;;;8.27;88.47
7182;BME280;3632;42.724;23.298;2022-10-16T02:29:01;95643.66;;;5.76;87.79
7182;BME280;3632;42.724;23.298;2022-10-16T02:31:32;96169.34;;;8.80;88.98
7182;BME280;3632;42.724;23.298;2022-10-16T02:34:03;96149.88;;;8.94;88.74
7182;BME280;3632;42.724;23.298;2022-10-16T02:36:32;95855.00;;;6.46;88.72
7182;BME280;3632;42.724;23.298;2022-10-16T02:39:01;96114.38;;;8.93;88.84
7182;BME280;3632;42.724;23.298;2022-10-16T02:41:30;96006.34;;;8.27;89.20
7182;BME280;3632;42.724;23.298;2022-10-16T02:43:58;96118.75;;;8.91;88.37
7182;BME280;3632;42.724;23.298;2022-10-16T02:46:25;96114.91;;;8.84;88.22
7182;BME280;3632;42.724;23.298;2022-10-16T02:48:52;96120.34;;;8.78;88.57
7182;BME280;3632;42.724;23.298;2022-10-16T02:51:18;96133.69;;;8.81;88.57
7182;BME280;3632;42.724;23.298;2022-10-16T02:53:45;95848.38;;;6.91;88.05
7182;BME280;3632;42.724;23.298;2022-10-16T02:56:12;95940.56;;;7.65;88.37
7182;BME280;3632;42.724;23.298;2022-10-16T02:58:40;96138.59;;;8.84;88.37
7182;BME280;3632;42.724;23.298;2022-10-16T03:01:08;96137.44;;;8.90;87.57
7182;BME280;3632;42.724;23.298;2022-10-16T03:03:35;95796.84;;;6.60;86.84
7182;BME280;3632;42.724;23.298;2022-10-16T03:06:02;96114.22;;;8.52;87.97
7182;BME280;3632;42.724;23.298;2022-10-16T03:08:29;96144.28;;;8.59;88.18
7182;BME280;3632;42.724;23.298;2022-10-16T03:10:56;96151.84;;;8.45;88.76
7182;BME280;3632;42.724;23.298;2022-10-16T03:13:22;96144.00;;;8.64;89.28
7182;BME280;3632;42.724;23.298;2022-10-16T03:15:49;96009.56;;;8.01;88.20
7182;BME280;3632;42.724;23.298;2022-10-16T03:18:17;96132.34;;;8.90;86.55
7182;BME280;3632;42.724;23.298;2022-10-16T03:20:44;95929.75;;;7.31;86.53
7182;BME280;3632;42.724;23.298;2022-10-16T03:23:11;96141.66;;;8.75;86.88
7182;BME280;3632;42.724;23.298;2022-10-16T03:25:37;95998.97;;;7.79;86.81
7182;BME280;3632;42.724;23.298;2022-10-16T03:28:04;96147.38;;;8.79;86.82
7182;BME280;3632;42.724;23.298;2022-10-16T03:30:31;96176.59;;;8.71;86.57
7182;BME280;3632;42.724;23.298;2022-10-16T03:32:58;96156.53;;;8.67;86.85
7182;BME280;3632;42.724;23.298;2022-10-16T03:35:26;95924.78;;;6.67;87.15
7182;BME280;3632;42.724;23.298;2022-10-16T03:37:53;96147.25;;;8.66;86.91
7182;BME280;3632;42.724;23.298;2022-10-16T03:40:20;96116.25;;;8.31;87.19
7182;BME280;3632;42.724;23.298;2022-10-16T03:42:47;96152.59;;;8.61;86.63
7182;BME280;3632;42.724;23.298;2022-10-16T03:45:14;96138.31;;;8.45;86.73
7182;BME280;3632;42.724;23.298;2022-10-16T03:47:41;96150.97;;;8.31;85.55
7182;BME280;3632;42.724;23.298;2022-10-16T03:50:08;96154.16;;;8.03;86.71
7182;BME280;3632;42.724;23.298;2022-10-16T03:52:36;96142.88;;;7.93;88.07
7182;BME280;3632;42.724;23.298;2022-10-16T03:55:03;95957.13;;;6.47;88.04
7182;BME280;3632;42.724;23.298;2022-10-16T03:57:30;96143.63;;;8.10;88.17
7182;BME280;3632;42.724;23.298;2022-10-16T03:59:57;96070.44;;;7.71;88.06
7182;BME280;3632;42.724;23.298;2022-10-16T04:02:24;96156.19;;;8.43;86.99
7182;BME280;3632;42.724;23.298;2022-10-16T04:04:50;96210.34;;;8.59;87.17
7182;BME280;3632;42.724;23.298;2022-10-16T04:07:17;96026.31;;;7.74;87.38
7182;BME280;3632;42.724;23.298;2022-10-16T04:09:46;95907.47;;;6.44;87.73
7182;BME280;3632;42.724;23.298;2022-10-16T04:12:13;95805.19;;;6.47;87.10
7182;BME280;3632;42.724;23.298;2022-10-16T04:14:39;96146.06;;;8.57;87.93
7182;BME280;3632;42.724;23.298;2022-10-16T04:17:06;96144.78;;;8.50;87.33
7182;BME280;3632;42.724;23.298;2022-10-16T04:19:33;96065.41;;;8.01;87.52
7182;BME280;3632;42.724;23.298;2022-10-16T04:22:00;96151.84;;;8.45;87.25
7182;BME280;3632;42.724;23.298;2022-10-16T04:24:26;96069.44;;;7.90;87.09
7182;BME280;3632;42.724;23.298;2022-10-16T04:26:54;96071.81;;;7.77;87.43
7182;BME280;3632;42.724;23.298;2022-10-16T04:29:22;96162.50;;;8.20;87.65
7182;BME280;3632;42.724;23.298;2022-10-16T04:31:48;96161.53;;;8.23;88.49
7182;BME280;3632;42.724;23.298;2022-10-16T04:34:15;96163.97;;;8.24;88.06
7182;BME280;3632;42.724;23.298;2022-10-16T04:36:42;95788.59;;;5.94;87.99
7182;BME280;3632;42.724;23.298;2022-10-16T04:39:09;96111.50;;;7.94;87.67
7182;BME280;3632;42.724;23.298;2022-10-16T04:41:35;96162.19;;;8.26;87.85
7182;BME280;3632;42.724;23.298;2022-10-16T04:44:03;96173.81;;;8.15;87.82
7182;BME280;3632;42.724;23.298;2022-10-16T04:46:30;96172.09;;;8.15;88.16
7182;BME280;3632;42.724;23.298;2022-10-16T04:48:57;96173.09;;;8.13;88.63
7182;BME280;3632;42.724;23.298;2022-10-16T04:51:24;96190.81;;;7.50;87.82
7182;BME280;3632;42.724;23.298;2022-10-16T04:53:52;96162.78;;;8.00;88.63
7182;BME280;3632;42.724;23.298;2022-10-16T04:56:19;95946.50;;;6.40;87.93
7182;BME280;3632;42.724;23.298;2022-10-16T04:58:46;96182.34;;;8.14;88.35
7182;BME280;3632;42.724;23.298;2022-10-16T05:01:14;96189.38;;;8.09;87.66
7182;BME280;3632;42.724;23.298;2022-10-16T05:03:41;95904.59;;;6.34;87.44
7182;BME280;3632;42.724;23.298;2022-10-16T05:06:08;96187.16;;;8.03;87.50
7182;BME280;3632;42.724;23.298;2022-10-16T05:08:35;96049.31;;;6.25;86.92
7182;BME280;3632;42.724;23.298;2022-10-16T05:11:01;96198.50;;;7.49;87.87
7182;BME280;3632;42.724;23.298;2022-10-16T05:13:28;95862.50;;;5.32;89.93
7182;BME280;3632;42.724;23.298;2022-10-16T05:15:55;96216.94;;;7.35;91.50
7182;BME280;3632;42.724;23.298;2022-10-16T05:18:23;96203.09;;;7.58;91.79
7182;BME280;3632;42.724;23.298;2022-10-16T05:20:50;96037.91;;;6.51;91.28
7182;BME280;3632;42.724;23.298;2022-10-16T05:23:17;96200.34;;;7.78;91.31
7182;BME280;3632;42.724;23.298;2022-10-16T05:25:52;96204.47;;;7.80;91.59
7182;BME280;3632;42.724;23.298;2022-10-16T05:28:18;96192.66;;;7.79;91.85
7182;BME280;3632;42.724;23.298;2022-10-16T05:30:45;95914.84;;;5.98;91.65
7182;BME280;3632;42.724;23.298;2022-10-16T05:33:12;96219.09;;;8.07;91.80
7182;BME280;3632;42.724;23.298;2022-10-16T05:35:40;96218.03;;;8.11;91.17
7182;BME280;3632;42.724;23.298;2022-10-16T05:38:07;96215.91;;;8.19;91.05
7182;BME280;3632;42.724;23.298;2022-10-16T05:40:33;96220.50;;;8.28;91.37
7182;BME280;3632;42.724;23.298;2022-10-16T05:43:00;96220.91;;;8.36;91.56
7182;BME280;3632;42.724;23.298;2022-10-16T05:45:27;95550.31;;;4.28;91.18
7182;BME280;3632;42.724;23.298;2022-10-16T05:47:54;96222.00;;;8.48;90.76
7182;BME280;3632;42.724;23.298;2022-10-16T05:50:21;96227.56;;;8.54;90.75
7182;BME280;3632;42.724;23.298;2022-10-16T05:52:49;96122.41;;;7.96;90.36
7182;BME280;3632;42.724;23.298;2022-10-16T05:55:15;96249.44;;;8.10;90.53
7182;BME280;3632;42.724;23.298;2022-10-16T05:57:42;96232.09;;;8.79;89.98
7182;BME280;3632;42.724;23.298;2022-10-16T06:00:10;96233.41;;;8.86;89.98
7182;BME280;3632;42.724;23.298;2022-10-16T06:02:37;96240.59;;;8.94;89.91
7182;BME280;3632;42.724;23.298;2022-10-16T06:05:04;95767.63;;;6.08;89.16
7182;BME280;3632;42.724;23.298;2022-10-16T06:07:34;96240.53;;;9.09;89.47
7182;BME280;3632;42.724;23.298;2022-10-16T06:10:03;95890.88;;;6.06;89.45
7182;BME280;3632;42.724;23.298;2022-10-16T06:12:31;96321.16;;;9.23;89.46
7182;BME280;3632;42.724;23.298;2022-10-16T06:14:57;96257.38;;;9.26;88.97
7182;BME280;3632;42.724;23.298;2022-10-16T06:17:24;96181.03;;;8.07;89.20
7182;BME280;3632;42.724;23.298;2022-10-16T06:19:51;96252.06;;;9.45;89.54
7182;BME280;3632;42.724;23.298;2022-10-16T06:22:17;96284.03;;;9.05;89.53
7182;BME280;3632;42.724;23.298;2022-10-16T06:24:45;96252.50;;;9.51;89.44
7182;BME280;3632;42.724;23.298;2022-10-16T06:27:14;95984.25;;;8.00;88.59
7182;BME280;3632;42.724;23.298;2022-10-16T06:29:41;96267.97;;;9.77;87.41
7182;BME280;3632;42.724;23.298;2022-10-16T06:32:08;96252.50;;;9.94;86.99
7182;BME280;3632;42.724;23.298;2022-10-16T06:34:35;96260.84;;;10.10;86.13
7182;BME280;3632;42.724;23.298;2022-10-16T06:37:01;96277.53;;;10.30;84.84
7182;BME280;3632;42.724;23.298;2022-10-16T06:39:28;96033.75;;;8.52;84.33
7182;BME280;3632;42.724;23.298;2022-10-16T06:41:55;96264.72;;;10.44;84.16
7182;BME280;3632;42.724;23.298;2022-10-16T06:44:23;96264.97;;;10.53;84.24
7182;BME280;3632;42.724;23.298;2022-10-16T06:46:50;95842.00;;;7.29;83.39
7182;BME280;3632;42.724;23.298;2022-10-16T06:49:17;96240.22;;;10.56;82.96
7182;BME280;3632;42.724;23.298;2022-10-16T06:51:47;96276.66;;;10.97;82.10
7182;BME280;3632;42.724;23.298;2022-10-16T06:54:15;96289.22;;;11.00;81.78
7182;BME280;3632;42.724;23.298;2022-10-16T06:56:43;96273.53;;;11.06;81.74
7182;BME280;3632;42.724;23.298;2022-10-16T06:59:10;96212.53;;;10.64;81.43
7182;BME280;3632;42.724;23.298;2022-10-16T07:01:38;96298.03;;;11.09;82.57
7182;BME280;3632;42.724;23.298;2022-10-16T07:04:05;96290.28;;;11.10;81.59
7182;BME280;3632;42.724;23.298;2022-10-16T07:06:33;96222.13;;;10.73;81.85
7182;BME280;3632;42.724;23.298;2022-10-16T07:09:02;96218.78;;;10.72;82.67
7182;BME280;3632;42.724;23.298;2022-10-16T07:11:29;95987.38;;;9.32;81.41
7182;BME280;3632;42.724;23.298;2022-10-16T07:13:56;96349.25;;;11.32;81.52
7182;BME280;3632;42.724;23.298;2022-10-16T07:16:24;96295.03;;;11.41;80.30
7182;BME280;3632;42.724;23.298;2022-10-16T07:18:53;96294.94;;;11.43;80.67
7182;BME280;3632;42.724;23.298;2022-10-16T07:21:24;96020.84;;;9.53;80.33
7182;BME280;3632;42.724;23.298;2022-10-16T07:23:52;96287.53;;;11.90;79.37
7182;BME280;3632;42.724;23.298;2022-10-16T07:26:19;96289.19;;;11.79;79.62
7182;BME280;3632;42.724;23.298;2022-10-16T07:28:46;96289.06;;;11.80;79.06
7182;BME280;3632;42.724;23.298;2022-10-16T07:31:15;95727.31;;;8.23;78.68
7182;BME280;3632;42.724;23.298;2022-10-16T07:33:43;96215.78;;;11.43;79.14
7182;BME280;3632;42.724;23.298;2022-10-16T07:36:12;96301.22;;;12.02;79.79
7182;BME280;3632;42.724;23.298;2022-10-16T07:38:40;96274.81;;;11.64;80.08
7182;BME280;3632;42.724;23.298;2022-10-16T07:41:10;96288.72;;;12.59;78.83
7182;BME280;3632;42.724;23.298;2022-10-16T07:43:37;96287.00;;;12.60;77.17
7182;BME280;3632;42.724;23.298;2022-10-16T07:46:06;95901.16;;;9.54;77.19
7182;BME280;3632;42.724;23.298;2022-10-16T07:48:39;96032.13;;;10.54;77.22
7182;BME280;3632;42.724;23.298;2022-10-16T07:51:14;96050.81;;;11.29;76.41
7182;BME280;3632;42.724;23.298;2022-10-16T07:53:41;96289.31;;;13.34;75.62
7182;BME280;3632;42.724;23.298;2022-10-16T07:56:08;96294.50;;;13.21;76.59
7182;BME280;3632;42.724;23.298;2022-10-16T07:58:35;96293.94;;;12.58;76.44
7182;BME280;3632;42.724;23.298;2022-10-16T08:01:04;96306.63;;;12.10;80.17
7182;BME280;3632;42.724;23.298;2022-10-16T08:03:31;96232.03;;;11.55;81.31
7182;BME280;3632;42.724;23.298;2022-10-16T08:05:59;96298.34;;;11.94;81.86
7182;BME280;3632;42.724;23.298;2022-10-16T08:08:27;96301.13;;;11.91;82.01
7182;BME280;3632;42.724;23.298;2022-10-16T08:10:54;96268.75;;;11.79;83.18
7182;BME280;3632;42.724;23.298;2022-10-16T08:13:21;96154.53;;;11.05;82.84
7182;BME280;3632;42.724;23.298;2022-10-16T08:15:48;96291.91;;;12.01;84.17
7182;BME280;3632;42.724;23.298;2022-10-16T08:18:15;96297.53;;;12.06;83.94
7182;BME280;3632;42.724;23.298;2022-10-16T08:20:43;96293.66;;;12.13;81.82
7182;BME280;3632;42.724;23.298;2022-10-16T08:23:11;96294.44;;;12.14;81.51
7182;BME280;3632;42.724;23.298;2022-10-16T08:25:39;96281.97;;;12.22;80.24
7182;BME280;3632;42.724;23.298;2022-10-16T08:28:07;96283.16;;;12.42;81.86
7182;BME280;3632;42.724;23.298;2022-10-16T08:30:35;96288.81;;;12.58;82.93
7182;BME280;3632;42.724;23.298;2022-10-16T08:33:02;96283.06;;;12.67;81.01
7182;BME280;3632;42.724;23.298;2022-10-16T08:35:30;96285.31;;;12.71;78.78
7182;BME280;3632;42.724;23.298;2022-10-16T08:37:56;96276.94;;;12.93;78.98
7182;BME280;3632;42.724;23.298;2022-10-16T08:40:25;96177.53;;;12.52;78.86
7182;BME280;3632;42.724;23.298;2022-10-16T08:45:59;96249.78;;;13.49;74.77
7182;BME280;3632;42.724;23.298;2022-10-16T08:51:08;96275.50;;;14.70;73.35
7182;BME280;3632;42.724;23.298;2022-10-16T08:53:43;96273.69;;;15.25;69.39
7182;BME280;3632;42.724;23.298;2022-10-16T08:56:11;96131.13;;;14.68;65.20
7182;BME280;3632;42.724;23.298;2022-10-16T08:58:38;96277.63;;;15.61;62.86
7182;BME280;3632;42.724;23.298;2022-10-16T09:01:12;96279.31;;;16.02;63.20
7182;BME280;3632;42.724;23.298;2022-10-16T09:06:40;96269.69;;;17.03;63.89
7182;BME280;3632;42.724;23.298;2022-10-16T09:09:35;96271.75;;;17.18;55.58
7182;BME280;3632;42.724;23.298;2022-10-16T09:12:11;96272.09;;;17.81;63.50
7182;BME280;3632;42.724;23.298;2022-10-16T09:14:55;96256.41;;;18.29;61.83
7182;BME280;3632;42.724;23.298;2022-10-16T09:17:37;96241.13;;;18.73;50.98
7182;BME280;3632;42.724;23.298;2022-10-16T09:20:16;96263.56;;;18.90;51.52
7182;BME280;3632;42.724;23.298;2022-10-16T09:22:44;96221.78;;;18.77;49.17
7182;BME280;3632;42.724;23.298;2022-10-16T09:25:14;96268.94;;;19.14;49.85
7182;BME280;3632;42.724;23.298;2022-10-16T09:27:45;96267.00;;;19.43;47.45
7182;BME280;3632;42.724;23.298;2022-10-16T09:30:14;96247.69;;;18.85;48.06
7182;BME280;3632;42.724;23.298;2022-10-16T09:32:45;96249.91;;;19.15;48.43
7182;BME280;3632;42.724;23.298;2022-10-16T09:35:15;96262.88;;;19.41;47.67
7182;BME280;3632;42.724;23.298;2022-10-16T09:37:44;96261.19;;;19.49;46.95
7182;BME280;3632;42.724;23.298;2022-10-16T09:40:13;96254.75;;;19.53;47.16
7182;BME280;3632;42.724;23.298;2022-10-16T09:42:53;96255.53;;;19.72;45.77
7182;BME280;3632;42.724;23.298;2022-10-16T09:45:24;96258.59;;;19.67;47.62
7182;BME280;3632;42.724;23.298;2022-10-16T09:47:52;96245.06;;;20.07;45.46
7182;BME280;3632;42.724;23.298;2022-10-16T09:50:22;96245.84;;;20.33;46.21
7182;BME280;3632;42.724;23.298;2022-10-16T09:53:02;96239.09;;;20.40;44.41
7182;BME280;3632;42.724;23.298;2022-10-16T09:55:29;96214.97;;;20.40;44.67
7182;BME280;3632;42.724;23.298;2022-10-16T09:57:56;96224.78;;;20.78;45.39
7182;BME280;3632;42.724;23.298;2022-10-16T10:00:24;96224.50;;;21.22;45.32
7182;BME280;3632;42.724;23.298;2022-10-16T10:02:52;96229.22;;;21.51;43.31
7182;BME280;3632;42.724;23.298;2022-10-16T10:05:21;96227.81;;;21.87;43.76
7182;BME280;3632;42.724;23.298;2022-10-16T10:07:54;96224.75;;;22.39;43.69
7182;BME280;3632;42.724;23.298;2022-10-16T10:10:24;96222.66;;;22.73;41.25
7182;BME280;3632;42.724;23.298;2022-10-16T10:12:52;96214.19;;;22.71;40.76
7182;BME280;3632;42.724;23.298;2022-10-16T10:15:21;96210.28;;;22.75;40.88
7182;BME280;3632;42.724;23.298;2022-10-16T10:17:52;96221.50;;;22.98;40.56
7182;BME280;3632;42.724;23.298;2022-10-16T10:20:26;96216.16;;;23.37;40.41
7182;BME280;3632;42.724;23.298;2022-10-16T10:22:54;96209.34;;;23.36;39.74
7182;BME280;3632;42.724;23.298;2022-10-16T10:25:36;96217.22;;;23.43;39.06
7182;BME280;3632;42.724;23.298;2022-10-16T10:33:38;96200.47;;;23.97;38.17
7182;BME280;3632;42.724;23.298;2022-10-16T10:36:26;96199.47;;;24.13;38.69
7182;BME280;3632;42.724;23.298;2022-10-16T10:38:57;96204.22;;;24.39;37.05
7182;BME280;3632;42.724;23.298;2022-10-16T10:42:04;96188.91;;;24.50;36.71
7182;BME280;3632;42.724;23.298;2022-10-16T10:44:59;96165.03;;;24.47;36.56
7182;BME280;3632;42.724;23.298;2022-10-16T10:47:35;96185.81;;;24.62;36.65
7182;BME280;3632;42.724;23.298;2022-10-16T10:50:14;96179.75;;;24.76;35.82
7182;BME280;3632;42.724;23.298;2022-10-16T10:52:56;96117.84;;;24.63;35.35
7182;BME280;3632;42.724;23.298;2022-10-16T10:55:33;96146.69;;;24.97;34.72
7182;BME280;3632;42.724;23.298;2022-10-16T10:58:41;96164.66;;;24.71;35.42
7182;BME280;3632;42.724;23.298;2022-10-16T11:01:13;96188.13;;;24.71;35.11
7182;BME280;3632;42.724;23.298;2022-10-16T11:03:59;96174.09;;;24.72;35.41
7182;BME280;3632;42.724;23.298;2022-10-16T11:06:34;96171.97;;;24.97;35.92
7182;BME280;3632;42.724;23.298;2022-10-16T11:09:09;96177.25;;;25.04;35.95
7182;BME280;3632;42.724;23.298;2022-10-16T11:11:41;96155.25;;;25.40;35.76
7182;BME280;3632;42.724;23.298;2022-10-16T11:14:14;96150.50;;;25.85;35.52
7182;BME280;3632;42.724;23.298;2022-10-16T11:16:45;96159.97;;;25.86;35.14
7182;BME280;3632;42.724;23.298;2022-10-16T11:19:25;96152.19;;;25.92;35.35
7182;BME280;3632;42.724;23.298;2022-10-16T11:22:01;96152.44;;;26.52;34.03
7182;BME280;3632;42.724;23.298;2022-10-16T11:24:36;96151.19;;;26.41;32.96
7182;BME280;3632;42.724;23.298;2022-10-16T11:27:09;96142.22;;;26.16;33.87
7182;BME280;3632;42.724;23.298;2022-10-16T11:29:46;96149.16;;;26.36;33.91
7182;BME280;3632;42.724;23.298;2022-10-16T11:32:22;96144.38;;;26.53;32.52
7182;BME280;3632;42.724;23.298;2022-10-16T11:34:53;96137.97;;;26.62;33.15
7182;BME280;3632;42.724;23.298;2022-10-16T11:37:27;96142.88;;;27.05;31.99
7182;BME280;3632;42.724;23.298;2022-10-16T11:40:02;95938.34;;;25.76;32.41
7182;BME280;3632;42.724;23.298;2022-10-16T11:42:33;96142.06;;;27.24;32.26
7182;BME280;3632;42.724;23.298;2022-10-16T11:45:12;96145.25;;;27.59;31.32
7182;BME280;3632;42.724;23.298;2022-10-16T11:47:45;96139.19;;;27.71;30.75
7182;BME280;3632;42.724;23.298;2022-10-16T11:50:23;96145.13;;;28.18;29.79
7182;BME280;3632;42.724;23.298;2022-10-16T11:52:57;96140.44;;;27.62;30.61
7182;BME280;3632;42.724;23.298;2022-10-16T11:55:29;96086.66;;;27.53;30.00
7182;BME280;3632;42.724;23.298;2022-10-16T11:58:03;96137.25;;;27.54;31.34
7182;BME280;3632;42.724;23.298;2022-10-16T12:00:37;96140.03;;;26.87;31.51
7182;BME280;3632;42.724;23.298;2022-10-16T12:03:15;96143.25;;;26.95;30.78
7182;BME280;3632;42.724;23.298;2022-10-16T12:05:55;96142.06;;;27.24;31.81
7182;BME280;3632;42.724;23.298;2022-10-16T12:08:26;96144.06;;;27.35;31.52
7182;BME280;3632;42.724;23.298;2022-10-16T12:11:06;96137.44;;;27.19;30.63
7182;BME280;3632;42.724;23.298;2022-10-16T12:13:35;96134.59;;;26.88;30.80
7182;BME280;3632;42.724;23.298;2022-10-16T12:16:19;96126.38;;;27.24;31.83
7182;BME280;3632;42.724;23.298;2022-10-16T12:18:47;96138.41;;;27.64;30.78
7182;BME280;3632;42.724;23.298;2022-10-16T12:21:15;96135.00;;;27.70;30.38
7182;BME280;3632;42.724;23.298;2022-10-16T12:23:50;96138.34;;;27.84;30.38
7182;BME280;3632;42.724;23.298;2022-10-16T12:26:24;96137.28;;;28.05;29.66
7182;BME280;3632;42.724;23.298;2022-10-16T12:28:52;96135.31;;;28.45;29.79
7182;BME280;3632;42.724;23.298;2022-10-16T12:31:18;96144.09;;;28.95;29.11
7182;BME280;3632;42.724;23.298;2022-10-16T12:33:57;96138.38;;;29.04;28.22
7182;BME280;3632;42.724;23.298;2022-10-16T12:36:28;96099.25;;;28.72;28.19
7182;BME280;3632;42.724;23.298;2022-10-16T12:38:58;96133.53;;;28.77;28.49
7182;BME280;3632;42.724;23.298;2022-10-16T12:41:27;96125.88;;;29.00;28.18
7182;BME280;3632;42.724;23.298;2022-10-16T12:43:54;96094.88;;;29.15;27.92
7182;BME280;3632;42.724;23.298;2022-10-16T12:46:37;96125.19;;;29.61;27.85
7182;BME280;3632;42.724;23.298;2022-10-16T12:49:21;96121.31;;;29.45;27.67
7182;BME280;3632;42.724;23.298;2022-10-16T12:51:50;96124.78;;;29.39;27.89
7182;BME280;3632;42.724;23.298;2022-10-16T12:54:19;96126.47;;;29.52;28.22
7182;BME280;3632;42.724;23.298;2022-10-16T12:56:54;96130.88;;;29.58;27.60
7182;BME280;3632;42.724;23.298;2022-10-16T12:59:33;96128.84;;;29.96;27.35
7182;BME280;3632;42.724;23.298;2022-10-16T13:02:39;96138.91;;;30.65;25.98
7182;BME280;3632;42.724;23.298;2022-10-16T13:05:25;96133.13;;;30.45;25.75
7182;BME280;3632;42.724;23.298;2022-10-16T13:08:03;96138.25;;;30.22;26.18
7182;BME280;3632;42.724;23.298;2022-10-16T13:10:37;96138.47;;;30.68;26.33
7182;BME280;3632;42.724;23.298;2022-10-16T13:13:21;96134.25;;;31.32;24.62
7182;BME280;3632;42.724;23.298;2022-10-16T13:16:02;96139.31;;;31.80;24.30
7182;BME280;3632;42.724;23.298;2022-10-16T13:18:41;96115.84;;;32.47;23.67
7182;BME280;3632;42.724;23.298;2022-10-16T13:21:26;96126.53;;;33.47;22.81
7182;BME280;3632;42.724;23.298;2022-10-16T13:24:02;96133.44;;;34.08;22.07
7182;BME280;3632;42.724;23.298;2022-10-16T13:26:40;96126.81;;;34.49;21.54
7182;BME280;3632;42.724;23.298;2022-10-16T13:29:09;96127.75;;;34.92;21.74
7182;BME280;3632;42.724;23.298;2022-10-16T13:31:37;96104.66;;;34.87;21.29
7182;BME280;3632;42.724;23.298;2022-10-16T13:34:05;96134.97;;;34.48;21.29
7182;BME280;3632;42.724;23.298;2022-10-16T13:36:35;96126.53;;;34.51;21.34
7182;BME280;3632;42.724;23.298;2022-10-16T13:39:12;96019.50;;;33.49;21.54
7182;BME280;3632;42.724;23.298;2022-10-16T13:41:41;96059.84;;;33.06;22.07
7182;BME280;3632;42.724;23.298;2022-10-16T13:44:13;96106.56;;;33.18;21.86
7182;BME280;3632;42.724;23.298;2022-10-16T13:46:41;96139.06;;;33.18;21.70
7182;BME280;3632;42.724;23.298;2022-10-16T13:49:13;96147.41;;;32.98;21.46
7182;BME280;3632;42.724;23.298;2022-10-16T13:51:40;96140.50;;;31.61;22.65